Login
Access
Login with your mtb-forum.it nickname and password.


You do not have an account? Sign up here for free

marcenar

Last training unit 09/09/2012
1
Followers
2 169 Km
itineraries
18 544 m
of total vertical gain
91
hours of riding
24.08 Km/h
average speed
127
average HR


09/09/2012 Show to everybody Allenamento 09-09-2012 alle 16:31:42 27.18 Km 354 m 01:23:54 19.43 Km\h Wisthle Crow
02/09/2012 Show to everybody Allenamento 02-09-2012 alle 06:17:34 59.85 Km 174 m 02:01:19 29.6 Km\h Wisthle Crow
26/08/2012 Show to everybody Allenamento 26-08-2012 alle 16:27:18 25.84 Km 323 m 01:08:46 22.54 Km\h Wisthle Crow
24/08/2012 Show to everybody Allenamento 24-08-2012 alle 05:35:59 75.51 Km 322 m 02:53:10 26.16 Km\h Wisthle Crow
23/08/2012 Show to everybody Allenamento 23-08-2012 alle 07:04:28 32.21 Km 93 m 01:20:41 23.95 Km\h Wisthle Crow
21/08/2012 Show to everybody Allenamento 21-08-2012 alle 05:11:06 84.41 Km 325 m 02:51:29 29.53 Km\h Wisthle Crow
20/08/2012 Show to everybody Allenamento 20-08-2012 alle 05:08:43 51.37 Km 438 m 02:24:54 21.27 Km\h Wisthle Crow
16/08/2012 Show to everybody Allenamento 16-08-2012 alle 06:08:20 63.73 Km 210 m 01:51:26 34.32 Km\h Wisthle Crow
15/08/2012 Show to everybody Allenamento 15-08-2012 alle 16:18:51 30.32 Km 168 m 01:11:19 25.51 Km\h Wisthle Crow
12/08/2012 Show to everybody Allenamento 12-08-2012 alle 05:22:23 28.96 Km 39 m 00:57:49 30.06 Km\h Wisthle Crow
11/08/2012 Show to everybody Allenamento 11-08-2012 alle 15:47:59 32.15 Km 157 m 01:15:11 25.66 Km\h Wisthle Crow
10/08/2012 Show to everybody Allenamento 10-08-2012 alle 07:00:27 84.53 Km 1162 m 04:24:36 19.17 Km\h Wisthle Crow
05/08/2012 Show to everybody Allenamento 05-08-2012 alle 07:07:21 68.75 Km 2280 m 03:35:32 19.14 Km\h Wisthle Crow
05/08/2012 Show to everybody Allenamento 05-08-2012 alle 06:07:15 33.49 Km 622 m 01:58:01 17.03 Km\h Wisthle Crow
04/08/2012 Show to everybody Allenamento 04-08-2012 alle 16:16:24 31.73 Km 149 m 01:15:27 25.23 Km\h Wisthle Crow
04/08/2012 Show to everybody Allenamento 04-08-2012 alle 16:16:24 31.73 Km 149 m 01:15:27 25.23 Km\h Wisthle Crow
01/08/2012 Show to everybody Allenamento 01-08-2012 alle 16:56:11 37.16 Km 325 m 01:37:30 22.87 Km\h Wisthle Crow
30/07/2012 Show to everybody Allenamento 30-07-2012 alle 17:16:11 29.28 Km 366 m 01:19:07 22.2 Km\h Wisthle Crow
29/07/2012 Show to everybody http://share.abvio.com/ccf4/40d1/4ded/89ab/Cyclemeter-Cycle-20120729-0838.gpx 67.16 Km 743 m 02:48:11 23.96 Km\h Wisthle Crow
26/07/2012 Show to everybody http://share.abvio.com/ccf4/40d1/4ded/89ab/Cyclemeter-Cycle-20120726-0553.gpx 24.98 Km 177 m 00:57:11 26.22 Km\h Wisthle Crow
26/07/2012 Show to everybody http://share.abvio.com/ccf4/40d1/4ded/89ab/Cyclemeter-Cycle-20120726-1846.gpx 18.1 Km 99 m 00:40:33 26.78 Km\h Wisthle Crow
21/07/2012 Show to everybody 20120721 66.5 Km 681 m 03:05:36 21.5 Km\h Wisthle Crow
20/07/2012 Show to everybody 20120720 69.87 Km 785 m 02:59:14 23.39 Km\h Wisthle Crow
19/07/2012 Show to everybody 20120719 28.99 Km 119 m 01:05:17 26.64 Km\h Wisthle Crow
15/07/2012 Show to everybody Ciclo raduno mapei 43 Km 808 m 03:03:42 14.04 Km\h mtb
14/07/2012 Show to everybody Allenamento 14-07-2012 alle 03:59:56 55.22 Km 194 m 02:01:51 27.19 Km\h Wisthle Crow
11/07/2012 Show to everybody Allenamento 11-07-2012 alle 04:09:14 24.65 Km 155 m 01:02:29 23.67 Km\h mtb
08/07/2012 Show to everybody Allenamento 08-07-2012 alle 06:34:39 34.47 Km 478 m 01:43:19 20.02 Km\h Wisthle Crow
07/07/2012 Show to everybody Sella ronda da campitello 70.09 Km 1606 m 04:29:45 15.59 Km\h Wisthle Crow
01/07/2012 Show to everybody Allenamento 01-07-2012 alle 04:09:05 142.86 Km 637 m 04:54:37 29.09 Km\h Wisthle Crow
26/06/2012 Show to everybody pegli campeggio 18.23 Km 48 m 00:42:37 25.67 Km\h Wisthle Crow
23/06/2012 Show to everybody Varazze stella alpicella varazze 33.5 Km 418 m 01:34:49 21.2 Km\h Wisthle Crow
10/06/2012 Show to everybody Turchino e praglia 82.13 Km 1002 m 04:03:01 20.28 Km\h Wisthle Crow
09/06/2012 Show to everybody Turchino 30.55 Km 432 m 01:25:10 21.52 Km\h Wisthle Crow
03/06/2012 Show to everybody Casa Acquasanta 18.06 Km 174 m 00:53:06 20.41 Km\h Wisthle Crow
02/06/2012 Show to everybody Pegli varazze 45.32 Km 270 m 01:41:42 26.74 Km\h Wisthle Crow
27/05/2012 Show to everybody Pegli Sciarborasca Stella Ellero Albisola Pegli 82.83 Km 740 m 03:45:20 22.06 Km\h Wisthle Crow
12/05/2012 Show to everybody 12-05-2012 68.39 Km 313 m 02:41:20 25.43 Km\h Wisthle Crow
06/05/2012 Show to everybody 06-05-2012 67.82 Km 292 m 02:25:39 27.94 Km\h Wisthle Crow
28/04/2012 Show to everybody 28-4-2012 87.86 Km 333 m 03:19:33 26.42 Km\h Wisthle Crow
21/04/2012 Show to everybody 21-04-2012 87.49 Km 389 m 03:11:44 27.38 Km\h Wisthle Crow
15/04/2012 Show to everybody 15-04-2012 67.86 Km 301 m 02:41:25 25.22 Km\h Wisthle Crow
08/04/2012 Show to everybody 08-04-2012 87.5 Km 434 m 03:21:52 26.01 Km\h Wisthle Crow

Show previous years trainings
This user's bikes.
Wisthle Crow 34 1634.23 Km 15519 m 69:51:37 23.97 Km/h
mtb 2 67.65 Km 963 m 04:06:11 18.86 Km/h

38 points
Kilometers
0
Vertical gain
0
Rank:265

Watch ranking »

 

Bike name

Delete this bike?

Now you follow this users and you can compare your trainings

If you stop following this users you will not be able to compare your trainings with his


bdc-forum.it | 2012-2019 Training Camp v.1.0.15